Řízení letového provozu České republiky
Letiste: LKPR Aktualizace: 20.01.2019 11:31:06  UTC
 METAR LKPR 20.01. 11:30 ...
METAR LKPR 201130Z 34004KT 290V010 8000 OVC028 M04/M05 Q1016 NOSIG RMK REG QNH 1010=
 TAF LKPR 20.01. 11:00 ...
TAF LKPR 201100Z 2012/2118 34004KT 8000 OVC025      BECMG 2018/2021 SCT020      BECMG 2100/2102 CAVOK      BECMG 2104/2106 3000 BR BKN008      TEMPO 2106/2109 1500 BR BKN004      PROB30 TEMPO 2106/2109 0700 FZFG VV002      BECMG 2109/2111 05004KT CAVOK=